Time;durP1;ratioP1;P1;durP2;ratioP2;P2;SDS_P1;SDS_P2;PMS_P1;PMS_P2;Temp;Humidity;BMP_temperature;BMP_pressure;BME280_temperature;BME280_humidity;BME280_pressure;Samples;Min_cycle;Max_cycle;Signal;HPM_P1;HPM_P2
2023/04/05 00:00:53;;;;;;;;;;;;;;;14.49;66.11;100477.79;106904;1272;25409;-50
2023/04/05 00:03:22;;;;;;;;;;;;;;;14.44;66.28;100487.25;106797;1272;23299;-51
2023/04/05 00:05:53;;;;;;;;;;;;;;;14.41;66.53;100495.41;106867;1270;22498;-51
2023/04/05 00:08:25;;;;;;;;;;;;;;;14.38;66.66;100500.06;106891;1270;22502;-51
2023/04/05 00:10:54;;;;;;;;;;;;;;;14.36;66.79;100502.09;106853;1270;24316;-51
2023/04/05 00:13:23;;;;;;;;;;;;;;;14.33;66.87;100503.24;106853;1276;24262;-50
2023/04/05 00:15:51;;;;;;;;;;;;;;;14.31;67.03;100500.19;106928;1274;25359;-51
2023/04/05 00:18:23;;;;;;;;;;;;;;;14.29;67.05;100501.66;106866;1269;25320;-51
2023/04/05 00:20:51;;;;;;;;;;;;;;;14.28;67.06;100504.67;106891;1269;25475;-50
2023/04/05 00:23:21;;;;;;;;;;;;;;;14.28;67.18;100501.17;106354;1276;25249;-52
2023/04/05 00:25:49;;;;;;;;;;;;;;;14.28;67.12;100496.98;106831;1270;24848;-51
2023/04/05 00:28:18;;;;;;;;;;;;;;;14.29;67.09;100495.75;106867;1270;25319;-51
2023/04/05 00:30:47;;;;;;;;;;;;;;;14.27;67.09;100494.55;106893;1270;25305;-50
2023/04/05 00:33:17;;;;;;;;;;;;;;;14.26;67.13;100495.33;106955;1269;25294;-50
2023/04/05 00:35:45;;;;;;;;;;;;;;;14.22;67.26;100496.70;106818;1271;25428;-50
2023/04/05 00:38:14;;;;;;;;;;;;;;;14.11;67.57;100501.70;106813;1275;22713;-50
2023/04/05 00:40:43;;;;;;;;;;;;;;;14.08;67.74;100498.85;106871;1270;25320;-50
2023/04/05 00:43:14;;;;;;;;;;;;;;;14.07;67.79;100497.30;106725;1271;26475;-50
2023/04/05 00:45:43;;;;;;;;;;;;;;;14.07;67.73;100492.44;106656;1276;22538;-50
2023/04/05 00:48:14;;;;;;;;;;;;;;;14.06;67.77;100488.27;106635;1261;25320;-50
2023/04/05 00:50:43;;;;;;;;;;;;;;;14.06;67.69;100475.75;106613;1271;22506;-50
2023/04/05 00:53:14;;;;;;;;;;;;;;;14.06;67.69;100476.79;106688;1270;25322;-50
2023/04/05 00:55:43;;;;;;;;;;;;;;;14.04;67.81;100474.23;106658;1268;22563;-51
2023/04/05 00:58:12;;;;;;;;;;;;;;;14.04;67.89;100470.59;106738;1270;25359;-51
2023/04/05 01:00:40;;;;;;;;;;;;;;;14.03;67.87;100464.17;106606;1270;22625;-50
2023/04/05 01:03:12;;;;;;;;;;;;;;;14.01;67.86;100463.71;106728;1269;25374;-49
2023/04/05 01:06:02;;;;;;;;;;;;;;;14.01;67.82;100472.30;106636;1271;26458;-52
2023/04/05 01:08:37;;;;;;;;;;;;;;;13.99;67.76;100476.55;106017;1268;1003069;-51
2023/04/05 01:11:06;;;;;;;;;;;;;;;13.98;67.77;100472.55;106632;1277;25344;-49
2023/04/05 01:13:36;;;;;;;;;;;;;;;13.97;67.86;100474.36;106912;1270;25384;-50
2023/04/05 01:16:05;;;;;;;;;;;;;;;13.99;68.00;100477.23;107042;1270;25324;-51
2023/04/05 01:18:35;;;;;;;;;;;;;;;14.01;67.83;100476.29;105243;1270;1003756;-51
2023/04/05 01:21:06;;;;;;;;;;;;;;;14.01;67.85;100477.68;106851;1269;25374;-50
2023/04/05 01:23:36;;;;;;;;;;;;;;;14.01;67.78;100471.90;106867;1270;25454;-51
2023/04/05 01:26:17;;;;;;;;;;;;;;;14.01;67.73;100462.70;106906;1268;24188;-51
2023/04/05 01:28:51;;;;;;;;;;;;;;;14.00;67.67;100462.02;106894;1268;25318;-51
2023/04/05 01:31:38;;;;;;;;;;;;;;;13.98;67.70;100453.75;106994;1268;22999;-50
2023/04/05 01:34:18;;;;;;;;;;;;;;;13.97;67.69;100450.64;106923;1269;25296;-49
2023/04/05 01:36:53;;;;;;;;;;;;;;;13.97;67.64;100446.48;106879;1270;25621;-50
2023/04/05 01:39:22;;;;;;;;;;;;;;;13.95;67.51;100448.27;106912;1269;22657;-51
2023/04/05 01:41:50;;;;;;;;;;;;;;;13.94;67.57;100446.58;106936;1269;24305;-51
2023/04/05 01:44:19;;;;;;;;;;;;;;;14.00;67.28;100446.16;106932;1269;23341;-51
2023/04/05 01:46:47;;;;;;;;;;;;;;;14.05;67.09;100452.41;106897;1273;22498;-50
2023/04/05 01:49:18;;;;;;;;;;;;;;;13.97;67.38;100447.16;106795;1269;25286;-51
2023/04/05 01:51:46;;;;;;;;;;;;;;;13.93;67.60;100447.98;106756;1269;22498;-50
2023/04/05 01:54:14;;;;;;;;;;;;;;;13.93;67.54;100450.77;106887;1270;25850;-51
2023/04/05 01:56:43;;;;;;;;;;;;;;;13.99;67.42;100450.40;106926;1270;22496;-51
2023/04/05 01:59:11;;;;;;;;;;;;;;;14.05;67.28;100456.23;106588;1274;24182;-50
2023/04/05 02:01:40;;;;;;;;;;;;;;;14.08;67.30;100456.96;106749;1270;25430;-51
2023/04/05 02:04:10;;;;;;;;;;;;;;;14.10;67.16;100460.55;106683;1270;25280;-50
2023/04/05 02:06:39;;;;;;;;;;;;;;;14.12;67.18;100462.05;106547;1273;25345;-51
2023/04/05 02:09:09;;;;;;;;;;;;;;;14.13;67.28;100468.98;106718;1268;25202;-50
2023/04/05 02:11:38;;;;;;;;;;;;;;;14.16;67.11;100469.56;106404;1269;25355;-51
2023/04/05 02:14:06;;;;;;;;;;;;;;;14.17;67.10;100471.96;106562;1275;24212;-50
2023/04/05 02:16:35;;;;;;;;;;;;;;;14.18;66.98;100472.27;106641;1270;25387;-51
2023/04/05 02:19:04;;;;;;;;;;;;;;;14.18;67.06;100466.48;106659;1271;23843;-52
2023/04/05 02:21:39;;;;;;;;;;;;;;;14.19;66.90;100464.03;106580;1270;25386;-50
2023/04/05 02:24:07;;;;;;;;;;;;;;;14.19;66.91;100459.84;106666;1261;22480;-49
2023/04/05 02:26:36;;;;;;;;;;;;;;;14.18;66.80;100455.52;106927;1270;25294;-49
2023/04/05 02:29:06;;;;;;;;;;;;;;;14.16;66.87;100452.83;106782;1273;25315;-49
2023/04/05 02:31:34;;;;;;;;;;;;;;;14.13;66.80;100456.26;106854;1270;25299;-50
2023/04/05 02:34:04;;;;;;;;;;;;;;;14.12;66.89;100454.20;106511;1270;426814;-51
2023/04/05 02:36:33;;;;;;;;;;;;;;;13.99;67.34;100458.91;106738;1270;22516;-50
2023/04/05 02:39:03;;;;;;;;;;;;;;;13.97;67.51;100463.16;106428;1273;22502;-49
2023/04/05 02:41:35;;;;;;;;;;;;;;;14.01;67.48;100470.54;106643;1269;25327;-51
2023/04/05 02:44:03;;;;;;;;;;;;;;;14.04;67.42;100475.45;106665;1269;25472;-50
2023/04/05 02:46:32;;;;;;;;;;;;;;;14.09;67.43;100484.16;106757;1268;25356;-50
2023/04/05 02:49:00;;;;;;;;;;;;;;;14.15;67.25;100484.43;106820;1269;25338;-50
2023/04/05 02:51:33;;;;;;;;;;;;;;;14.21;67.06;100479.84;106826;1269;25306;-50
2023/04/05 02:54:03;;;;;;;;;;;;;;;14.26;66.88;100479.95;106845;1269;22989;-52
2023/04/05 02:56:33;;;;;;;;;;;;;;;14.28;66.73;100475.88;106940;1269;24221;-50
2023/04/05 02:59:02;;;;;;;;;;;;;;;14.27;66.67;100470.31;106816;1271;25207;-49
2023/04/05 03:01:32;;;;;;;;;;;;;;;14.26;66.62;100472.80;106807;1273;25336;-49
2023/04/05 03:04:02;;;;;;;;;;;;;;;14.24;66.68;100476.17;106860;1269;25335;-51
2023/04/05 03:06:31;;;;;;;;;;;;;;;14.24;66.73;100480.53;106917;1268;25293;-52
2023/04/05 03:09:03;;;;;;;;;;;;;;;14.26;66.63;100482.55;106582;1273;25494;-50
2023/04/05 03:11:31;;;;;;;;;;;;;;;14.28;66.56;100481.45;106495;1273;25332;-50
2023/04/05 03:14:04;;;;;;;;;;;;;;;14.27;66.49;100485.31;106745;1269;22521;-49
2023/04/05 03:16:49;;;;;;;;;;;;;;;14.24;66.50;100487.70;106767;1269;25300;-53
2023/04/05 03:19:27;;;;;;;;;;;;;;;14.21;66.60;100488.36;106915;1268;25299;-51
2023/04/05 03:22:01;;;;;;;;;;;;;;;14.18;66.71;100488.12;106928;1270;24250;-51
2023/04/05 03:24:33;;;;;;;;;;;;;;;14.15;66.74;100481.80;106859;1269;25329;-52
2023/04/05 03:27:04;;;;;;;;;;;;;;;14.13;66.76;100485.89;106803;1270;22515;-52
2023/04/05 03:29:41;;;;;;;;;;;;;;;14.10;66.79;100477.81;106743;1270;25321;-51
2023/04/05 03:32:14;;;;;;;;;;;;;;;14.07;66.68;100469.59;106895;1270;24163;-50
2023/04/05 03:34:49;;;;;;;;;;;;;;;14.03;66.91;100468.86;106776;1271;22612;-50
2023/04/05 03:37:18;;;;;;;;;;;;;;;14.00;67.02;100472.30;106716;1270;22507;-50
2023/04/05 03:39:58;;;;;;;;;;;;;;;14.03;67.26;100471.84;106858;1270;22498;-51
2023/04/05 03:42:27;;;;;;;;;;;;;;;14.09;67.21;100470.88;106914;1269;22509;-51
2023/04/05 03:44:56;;;;;;;;;;;;;;;14.16;66.98;100475.85;106905;1268;25327;-50
2023/04/05 03:47:26;;;;;;;;;;;;;;;14.22;66.77;100474.17;106889;1269;25328;-50
2023/04/05 03:49:55;;;;;;;;;;;;;;;14.27;66.54;100479.38;106917;1269;24361;-51
2023/04/05 03:52:24;;;;;;;;;;;;;;;14.32;66.39;100476.77;106787;1276;25201;-51
2023/04/05 03:54:53;;;;;;;;;;;;;;;14.35;66.13;100477.67;106860;1269;24349;-51
2023/04/05 03:57:22;;;;;;;;;;;;;;;14.38;65.90;100470.92;106857;1268;26473;-51
2023/04/05 03:59:53;;;;;;;;;;;;;;;14.41;65.80;100467.86;106841;1268;25375;-51
2023/04/05 04:02:23;;;;;;;;;;;;;;;14.42;65.48;100463.61;106798;1270;25247;-50
2023/04/05 04:04:52;;;;;;;;;;;;;;;14.41;65.22;100459.98;103944;1268;1003727;-50
2023/04/05 04:07:21;;;;;;;;;;;;;;;14.38;65.21;100464.98;106859;1268;22519;-50
2023/04/05 04:09:49;;;;;;;;;;;;;;;14.33;64.98;100470.27;106928;1268;25364;-50
2023/04/05 04:12:17;;;;;;;;;;;;;;;14.22;64.92;100464.43;106858;1269;25760;-50
2023/04/05 04:14:56;;;;;;;;;;;;;;;14.08;65.15;100464.81;106695;1269;25325;-51
2023/04/05 04:17:57;;;;;;;;;;;;;;;13.97;65.39;100461.11;106741;1273;25299;-50
2023/04/05 04:20:37;;;;;;;;;;;;;;;13.85;65.60;100462.61;106687;1273;25329;-50
2023/04/05 04:23:17;;;;;;;;;;;;;;;13.73;65.84;100462.23;106884;1268;25307;-50
2023/04/05 04:26:15;;;;;;;;;;;;;;;13.61;66.21;100455.92;106895;1268;25338;-50
2023/04/05 04:29:00;;;;;;;;;;;;;;;13.54;66.47;100460.55;106901;1268;26078;-50
2023/04/05 04:31:44;;;;;;;;;;;;;;;13.48;66.52;100456.77;106809;1268;25300;-51
2023/04/05 04:34:33;;;;;;;;;;;;;;;13.40;66.76;100453.95;106804;1268;24325;-51
2023/04/05 04:37:32;;;;;;;;;;;;;;;13.34;67.11;100454.70;106889;1269;25299;-51
2023/04/05 04:40:40;;;;;;;;;;;;;;;13.29;67.19;100458.91;106765;1275;25348;-50
2023/04/05 04:43:49;;;;;;;;;;;;;;;13.21;67.25;100467.03;106489;1275;25313;-51
2023/04/05 04:46:29;;;;;;;;;;;;;;;13.15;67.51;100464.65;110023;1275;23231;-51
2023/04/05 04:49:20;;;;;;;;;;;;;;;13.08;67.61;100467.86;110330;1268;22514;-51
2023/04/05 04:51:50;;;;;;;;;;;;;;;13.03;67.80;100459.82;110266;1268;23242;-51
2023/04/05 04:54:21;;;;;;;;;;;;;;;12.97;67.86;100451.83;110372;1276;22448;-51
2023/04/05 04:56:49;;;;;;;;;;;;;;;12.93;67.94;100441.73;110461;1276;22465;-48
2023/04/05 04:59:17;;;;;;;;;;;;;;;12.88;68.00;100438.60;110461;1268;22630;-51
2023/04/05 05:01:46;;;;;;;;;;;;;;;12.85;68.25;100445.31;110453;1276;23133;-49
2023/04/05 05:04:14;;;;;;;;;;;;;;;12.83;68.39;100457.59;109516;1276;1002849;-50
2023/04/05 05:06:43;;;;;;;;;;;;;;;12.83;68.53;100468.01;110395;1269;23072;-51
2023/04/05 05:09:11;;;;;;;;;;;;;;;12.84;68.55;100469.71;110493;1268;22428;-50
2023/04/05 05:12:00;;;;;;;;;;;;;;;12.85;68.43;100477.89;110452;1276;23604;-49
2023/04/05 05:14:29;;;;;;;;;;;;;;;12.84;68.46;100475.67;110446;1273;22417;-50
2023/04/05 05:16:59;;;;;;;;;;;;;;;12.84;68.45;100478.77;110460;1276;22578;-51
2023/04/05 05:19:30;;;;;;;;;;;;;;;12.84;68.40;100483.48;110413;1269;22446;-48
2023/04/05 05:21:59;;;;;;;;;;;;;;;12.84;68.22;100477.05;110388;1273;22540;-51
2023/04/05 05:24:27;;;;;;;;;;;;;;;12.80;68.19;100459.77;110450;1276;22422;-50
2023/04/05 05:26:55;;;;;;;;;;;;;;;12.76;68.15;100446.86;110440;1268;22796;-51
2023/04/05 05:29:24;;;;;;;;;;;;;;;12.72;68.26;100438.48;109398;1276;1002787;-50
2023/04/05 05:31:52;;;;;;;;;;;;;;;12.69;68.27;100454.23;110490;1268;22432;-50
2023/04/05 05:34:21;;;;;;;;;;;;;;;12.66;68.24;100472.65;110450;1273;22438;-50
2023/04/05 05:37:00;;;;;;;;;;;;;;;12.65;68.41;100482.40;110425;1270;22424;-50
2023/04/05 05:39:28;;;;;;;;;;;;;;;12.66;68.37;100490.91;110446;1273;22426;-50
2023/04/05 05:41:57;;;;;;;;;;;;;;;12.65;68.22;100477.88;110179;1276;22433;-50
2023/04/05 05:44:25;;;;;;;;;;;;;;;12.64;68.15;100461.05;110437;1268;22423;-51
2023/04/05 05:46:55;;;;;;;;;;;;;;;12.59;67.90;100446.78;110473;1268;22615;-50
2023/04/05 05:49:24;;;;;;;;;;;;;;;12.52;67.82;100444.24;109712;1268;1002707;-50
2023/04/05 05:51:57;;;;;;;;;;;;;;;12.44;67.90;100445.22;110436;1268;22449;-50
2023/04/05 05:54:26;;;;;;;;;;;;;;;12.39;67.83;100452.71;110444;1276;22495;-50
2023/04/05 05:56:54;;;;;;;;;;;;;;;12.35;67.94;100457.34;110454;1268;22504;-51
2023/04/05 05:59:23;;;;;;;;;;;;;;;12.34;68.05;100461.05;110037;1277;22425;-50
2023/04/05 06:01:51;;;;;;;;;;;;;;;12.36;67.90;100466.73;110445;1273;22407;-50
2023/04/05 06:04:19;;;;;;;;;;;;;;;12.34;67.64;100469.05;109702;1268;1002564;-50
2023/04/05 06:06:48;;;;;;;;;;;;;;;12.31;67.71;100469.52;109688;1276;1002927;-50
2023/04/05 06:09:18;;;;;;;;;;;;;;;12.31;67.74;100467.40;110458;1264;22410;-51
2023/04/05 06:11:46;;;;;;;;;;;;;;;12.31;67.37;100472.46;110447;1269;22446;-50
2023/04/05 06:14:24;;;;;;;;;;;;;;;12.25;67.13;100467.11;110456;1269;22433;-51
2023/04/05 06:16:56;;;;;;;;;;;;;;;12.20;67.19;100465.17;110142;1276;22458;-50
2023/04/05 06:19:25;;;;;;;;;;;;;;;12.15;67.18;100459.41;110452;1276;22395;-50
2023/04/05 06:21:53;;;;;;;;;;;;;;;12.11;67.31;100450.86;110452;1268;22434;-50
2023/04/05 06:24:22;;;;;;;;;;;;;;;12.08;67.33;100440.52;110456;1268;22719;-50
2023/04/05 06:26:50;;;;;;;;;;;;;;;12.05;67.31;100436.46;110477;1268;22650;-50
2023/04/05 06:29:19;;;;;;;;;;;;;;;12.00;67.31;100430.36;110457;1268;22452;-50
2023/04/05 06:31:47;;;;;;;;;;;;;;;11.94;67.35;100425.17;110467;1273;22496;-50
2023/04/05 06:34:15;;;;;;;;;;;;;;;11.90;67.44;100423.91;110440;1268;22485;-51
2023/04/05 06:36:46;;;;;;;;;;;;;;;11.88;67.58;100419.83;110469;1273;22427;-50
2023/04/05 06:39:15;;;;;;;;;;;;;;;11.85;67.45;100422.85;110454;1268;22435;-50
2023/04/05 06:41:43;;;;;;;;;;;;;;;11.82;67.43;100418.97;110454;1269;23120;-50
2023/04/05 06:44:11;;;;;;;;;;;;;;;11.79;67.66;100417.67;110436;1276;22408;-51
2023/04/05 06:46:40;;;;;;;;;;;;;;;11.78;67.67;100424.48;110221;1276;22511;-50
2023/04/05 06:49:08;;;;;;;;;;;;;;;11.77;67.67;100419.13;110433;1268;22448;-50
2023/04/05 06:51:37;;;;;;;;;;;;;;;11.75;67.67;100424.06;110169;1276;23101;-50
2023/04/05 06:54:07;;;;;;;;;;;;;;;11.72;67.73;100426.40;110188;1272;22441;-50
2023/04/05 06:56:36;;;;;;;;;;;;;;;11.70;67.93;100426.30;110455;1268;22434;-50
2023/04/05 06:59:05;;;;;;;;;;;;;;;11.70;67.90;100429.23;110415;1276;22452;-50
2023/04/05 07:01:35;;;;;;;;;;;;;;;11.70;68.03;100422.30;110469;1268;22395;-50
2023/04/05 07:04:05;;;;;;;;;;;;;;;11.71;67.84;100425.90;110470;1268;23159;-50
2023/04/05 07:06:37;;;;;;;;;;;;;;;11.68;67.64;100419.58;109694;1273;1002398;-50
2023/04/05 07:09:07;;;;;;;;;;;;;;;11.66;67.91;100418.59;110485;1268;23193;-51
2023/04/05 07:11:35;;;;;;;;;;;;;;;11.66;67.90;100419.63;110444;1269;22465;-50
2023/04/05 07:14:03;;;;;;;;;;;;;;;11.66;67.86;100406.78;110176;1276;22445;-50
2023/04/05 07:16:34;;;;;;;;;;;;;;;11.67;67.87;100405.02;110488;1268;22403;-50
2023/04/05 07:19:05;;;;;;;;;;;;;;;11.67;67.93;100406.93;110440;1268;22445;-50
2023/04/05 07:21:33;;;;;;;;;;;;;;;11.67;67.78;100403.98;110461;1268;22512;-51
2023/04/05 07:24:05;;;;;;;;;;;;;;;11.66;67.71;100406.09;110462;1269;22445;-50
2023/04/05 07:26:34;;;;;;;;;;;;;;;11.65;67.69;100400.71;110503;1268;22526;-49
2023/04/05 07:29:03;;;;;;;;;;;;;;;11.65;67.75;100406.96;110138;1272;23211;-50
2023/04/05 07:31:35;;;;;;;;;;;;;;;11.68;67.65;100405.52;110475;1276;23087;-50
2023/04/05 07:34:04;;;;;;;;;;;;;;;11.69;67.53;100412.95;110453;1276;22430;-50
2023/04/05 07:36:32;;;;;;;;;;;;;;;11.69;67.39;100411.04;110514;1268;22463;-50
2023/04/05 07:39:04;;;;;;;;;;;;;;;11.67;67.22;100417.34;110493;1268;23049;-50
2023/04/05 07:41:34;;;;;;;;;;;;;;;11.64;67.12;100418.13;110124;1276;22440;-50
2023/04/05 07:44:04;;;;;;;;;;;;;;;11.61;67.32;100424.84;109713;1268;1002321;-50
2023/04/05 07:46:33;;;;;;;;;;;;;;;11.59;67.33;100424.52;110431;1269;22430;-50
2023/04/05 07:49:02;;;;;;;;;;;;;;;11.58;67.28;100424.56;109742;1268;1003109;-50
2023/04/05 07:51:34;;;;;;;;;;;;;;;11.57;67.43;100418.17;110356;1276;23134;-50
2023/04/05 07:54:02;;;;;;;;;;;;;;;11.58;67.50;100422.84;110464;1276;23636;-50
2023/04/05 07:56:32;;;;;;;;;;;;;;;11.58;67.30;100426.12;110350;1270;22411;-48
2023/04/05 07:59:00;;;;;;;;;;;;;;;11.57;67.30;100419.89;110466;1268;22418;-50
2023/04/05 08:01:30;;;;;;;;;;;;;;;11.57;67.28;100424.05;110514;1268;22443;-50
2023/04/05 08:03:58;;;;;;;;;;;;;;;11.59;67.29;100421.77;110496;1268;22432;-50
2023/04/05 08:06:26;;;;;;;;;;;;;;;11.59;66.96;100430.62;110464;1276;23158;-49
2023/04/05 08:08:55;;;;;;;;;;;;;;;11.57;66.83;100432.24;110476;1268;22429;-50
2023/04/05 08:11:25;;;;;;;;;;;;;;;11.54;66.69;100438.60;110193;1271;22463;-49
2023/04/05 08:13:54;;;;;;;;;;;;;;;11.52;66.81;100449.95;110481;1268;23169;-50
2023/04/05 08:16:22;;;;;;;;;;;;;;;11.51;66.78;100451.36;110481;1268;22424;-50
2023/04/05 08:18:53;;;;;;;;;;;;;;;11.51;66.62;100457.80;110322;1268;22446;-50
2023/04/05 08:21:21;;;;;;;;;;;;;;;11.49;66.63;100462.19;110116;1269;23117;-50
2023/04/05 08:23:51;;;;;;;;;;;;;;;11.47;66.50;100474.03;110458;1268;23165;-51
2023/04/05 08:26:19;;;;;;;;;;;;;;;11.45;66.44;100471.52;110394;1276;23169;-50
2023/04/05 08:28:48;;;;;;;;;;;;;;;11.42;66.58;100480.27;110228;1271;22419;-50
2023/04/05 08:31:16;;;;;;;;;;;;;;;11.42;66.81;100489.65;109742;1268;1002435;-50
2023/04/05 08:33:45;;;;;;;;;;;;;;;11.44;66.69;100499.31;110291;1272;23173;-50
2023/04/05 08:36:14;;;;;;;;;;;;;;;11.43;66.49;100501.98;110241;1272;22448;-50
2023/04/05 08:38:42;;;;;;;;;;;;;;;11.40;66.53;100499.61;110149;1276;23162;-49
2023/04/05 08:41:17;;;;;;;;;;;;;;;11.39;66.53;100496.02;110472;1276;23133;-51
2023/04/05 08:43:46;;;;;;;;;;;;;;;11.37;66.55;100494.14;110150;1276;22469;-50
2023/04/05 08:46:15;;;;;;;;;;;;;;;11.36;66.54;100499.55;110362;1273;22531;-50
2023/04/05 08:48:44;;;;;;;;;;;;;;;11.35;66.47;100492.98;110211;1273;22451;-50
2023/04/05 08:51:16;;;;;;;;;;;;;;;11.34;66.44;100490.76;110504;1268;23125;-49
2023/04/05 08:53:45;;;;;;;;;;;;;;;11.32;66.44;100495.67;110473;1276;22505;-50
2023/04/05 08:56:21;;;;;;;;;;;;;;;11.30;66.30;100491.90;110493;1268;22437;-49
2023/04/05 08:59:06;;;;;;;;;;;;;;;11.28;66.30;100494.58;110510;1268;22529;-50
2023/04/05 09:01:38;;;;;;;;;;;;;;;11.25;66.35;100491.35;110196;1278;22449;-50
2023/04/05 09:04:17;;;;;;;;;;;;;;;11.22;66.30;100488.14;109967;1270;23188;-50
2023/04/05 09:06:46;;;;;;;;;;;;;;;11.20;66.44;100484.75;110211;1271;22511;-50
2023/04/05 09:09:14;;;;;;;;;;;;;;;11.18;66.41;100484.98;110122;1278;23208;-50
2023/04/05 09:11:43;;;;;;;;;;;;;;;11.16;66.55;100479.65;110143;1273;22440;-51
2023/04/05 09:14:11;;;;;;;;;;;;;;;11.17;66.50;100475.64;110235;1271;22400;-50
2023/04/05 09:16:45;;;;;;;;;;;;;;;11.19;66.49;100480.09;110213;1271;22473;-50
2023/04/05 09:19:14;;;;;;;;;;;;;;;11.20;66.27;100481.63;110244;1278;22495;-49
2023/04/05 09:21:58;;;;;;;;;;;;;;;11.19;66.17;100476.60;110189;1278;22476;-49
2023/04/05 09:24:32;;;;;;;;;;;;;;;11.20;66.21;100479.18;110171;1271;22456;-50
2023/04/05 09:27:04;;;;;;;;;;;;;;;11.23;66.12;100481.36;110225;1271;23273;-50
2023/04/05 09:29:32;;;;;;;;;;;;;;;11.26;66.06;100479.37;110195;1278;23272;-50
2023/04/05 09:32:02;;;;;;;;;;;;;;;11.30;65.90;100483.75;110087;1274;23663;-50
2023/04/05 09:34:32;;;;;;;;;;;;;;;11.32;65.72;100484.73;110483;1273;23105;-50
2023/04/05 09:37:02;;;;;;;;;;;;;;;11.34;65.59;100480.16;110490;1276;22435;-49
2023/04/05 09:39:31;;;;;;;;;;;;;;;11.36;65.40;100482.73;110490;1268;22509;-50
2023/04/05 09:42:05;;;;;;;;;;;;;;;11.37;65.19;100486.16;110483;1268;22431;-50
2023/04/05 09:44:53;;;;;;;;;;;;;;;11.36;64.97;100488.95;110350;1271;23092;-50
2023/04/05 09:47:29;;;;;;;;;;;;;;;11.33;64.90;100491.13;109615;1270;1003024;-50
2023/04/05 09:50:04;;;;;;;;;;;;;;;11.29;64.99;100496.61;110101;1274;22438;-50
2023/04/05 09:52:34;;;;;;;;;;;;;;;11.25;65.18;100493.61;110480;1268;22398;-50
2023/04/05 09:55:03;;;;;;;;;;;;;;;11.24;65.26;100495.75;110468;1276;22420;-49
2023/04/05 09:57:34;;;;;;;;;;;;;;;11.23;65.19;100504.11;110477;1268;22881;-49
2023/04/05 10:00:04;;;;;;;;;;;;;;;11.21;65.23;100499.64;110413;1271;22438;-50
2023/04/05 10:02:43;;;;;;;;;;;;;;;11.22;65.17;100497.55;110460;1269;22443;-50
2023/04/05 10:05:14;;;;;;;;;;;;;;;11.19;64.92;100499.55;110477;1276;22448;-49
2023/04/05 10:07:44;;;;;;;;;;;;;;;11.16;64.89;100492.66;110532;1268;22484;-50
2023/04/05 10:10:12;;;;;;;;;;;;;;;11.17;64.74;100490.38;110474;1276;22397;-50
2023/04/05 10:12:40;;;;;;;;;;;;;;;11.12;64.71;100491.23;110500;1268;22479;-50
2023/04/05 10:15:10;;;;;;;;;;;;;;;11.07;64.54;100491.02;110497;1276;22436;-50
2023/04/05 10:17:48;;;;;;;;;;;;;;;10.99;64.67;100493.34;110409;1270;22616;-49
2023/04/05 10:20:20;;;;;;;;;;;;;;;10.92;64.86;100494.55;110478;1268;23202;-50
2023/04/05 10:22:50;;;;;;;;;;;;;;;10.89;65.02;100492.90;110525;1268;23100;-50
2023/04/05 10:25:26;;;;;;;;;;;;;;;10.86;65.07;100491.08;110210;1276;22429;-50
2023/04/05 10:28:04;;;;;;;;;;;;;;;10.85;65.45;100489.71;110544;1268;22488;-49
2023/04/05 10:30:38;;;;;;;;;;;;;;;10.88;65.47;100483.56;110292;1268;22447;-50
2023/04/05 10:33:17;;;;;;;;;;;;;;;10.93;65.41;100487.41;110041;1275;22610;-50
2023/04/05 10:35:51;;;;;;;;;;;;;;;10.95;65.12;100485.45;110525;1269;23085;-49
2023/04/05 10:38:26;;;;;;;;;;;;;;;10.95;65.24;100488.23;110484;1276;22478;-50
2023/04/05 10:41:11;;;;;;;;;;;;;;;10.95;65.08;100491.70;110454;1268;22411;-50
2023/04/05 10:43:40;;;;;;;;;;;;;;;10.93;65.21;100488.98;110491;1273;22404;-50
2023/04/05 10:46:09;;;;;;;;;;;;;;;10.92;65.06;100490.04;110527;1268;22428;-50
2023/04/05 10:48:47;;;;;;;;;;;;;;;10.89;65.05;100489.95;110537;1268;23241;-50
2023/04/05 10:51:16;;;;;;;;;;;;;;;10.86;65.13;100485.88;110512;1268;22438;-50
2023/04/05 10:53:45;;;;;;;;;;;;;;;10.87;65.33;100487.75;109383;1274;1002098;-51
2023/04/05 10:56:18;;;;;;;;;;;;;;;10.91;65.10;100481.75;110498;1268;22438;-49
2023/04/05 10:58:47;;;;;;;;;;;;;;;10.92;64.90;100480.52;110534;1268;22425;-51
2023/04/05 11:01:16;;;;;;;;;;;;;;;10.91;64.96;100484.17;110409;1268;22385;-50
2023/04/05 11:03:48;;;;;;;;;;;;;;;10.93;65.01;100490.89;110366;1271;22421;-49
2023/04/05 11:06:34;;;;;;;;;;;;;;;10.95;64.85;100492.04;110188;1276;22437;-50
2023/04/05 11:09:19;;;;;;;;;;;;;;;10.97;64.64;100493.02;110492;1276;23290;-50
2023/04/05 11:11:48;;;;;;;;;;;;;;;10.97;64.45;100492.70;110556;1276;22458;-50
2023/04/05 11:14:20;;;;;;;;;;;;;;;10.96;64.52;100491.70;110506;1269;22404;-50
2023/04/05 11:16:52;;;;;;;;;;;;;;;10.98;64.58;100493.70;110511;1276;23130;-50
2023/04/05 11:19:40;;;;;;;;;;;;;;;10.97;64.23;100489.21;110518;1269;23154;-49
2023/04/05 11:22:08;;;;;;;;;;;;;;;10.91;64.07;100494.75;110360;1272;23055;-49
2023/04/05 11:24:54;;;;;;;;;;;;;;;10.86;64.21;100491.26;110202;1271;22434;-50
2023/04/05 11:27:27;;;;;;;;;;;;;;;10.81;64.16;100496.77;110218;1276;22439;-50
2023/04/05 11:29:56;;;;;;;;;;;;;;;10.74;64.28;100499.05;110438;1269;22423;-50
2023/04/05 11:32:41;;;;;;;;;;;;;;;10.71;64.44;100502.79;110495;1273;22416;-49
2023/04/05 11:35:13;;;;;;;;;;;;;;;10.67;64.32;100505.30;110555;1268;22422;-49
2023/04/05 11:37:54;;;;;;;;;;;;;;;10.63;64.39;100501.08;110575;1268;23151;-50
2023/04/05 11:40:26;;;;;;;;;;;;;;;10.58;64.29;100505.38;110380;1274;22407;-50
2023/04/05 11:43:01;;;;;;;;;;;;;;;10.52;64.38;100505.17;110226;1276;23076;-50
2023/04/05 11:45:30;;;;;;;;;;;;;;;10.46;64.51;100500.98;110551;1268;22424;-50
2023/04/05 11:48:00;;;;;;;;;;;;;;;10.42;64.48;100500.05;110531;1268;22446;-49
2023/04/05 11:50:28;;;;;;;;;;;;;;;10.38;64.80;100486.96;110216;1276;23443;-50
2023/04/05 11:53:16;;;;;;;;;;;;;;;10.35;64.90;100486.87;110528;1276;22474;-50
2023/04/05 11:55:49;;;;;;;;;;;;;;;10.30;65.06;100487.53;110499;1268;22438;-49
2023/04/05 11:58:20;;;;;;;;;;;;;;;10.25;65.25;100484.52;110549;1268;22528;-50
2023/04/05 12:01:01;;;;;;;;;;;;;;;10.22;65.49;100488.09;110383;1276;22456;-49
2023/04/05 12:03:33;;;;;;;;;;;;;;;10.19;65.52;100477.24;110518;1273;23303;-50
2023/04/05 12:06:02;;;;;;;;;;;;;;;10.16;65.56;100487.02;109635;1270;1003099;-49
2023/04/05 12:08:38;;;;;;;;;;;;;;;10.14;65.69;100480.46;110246;1271;22433;-50
2023/04/05 12:11:08;;;;;;;;;;;;;;;10.12;65.67;100481.04;109457;1271;1002132;-49
2023/04/05 12:13:37;;;;;;;;;;;;;;;10.09;65.70;100473.46;110516;1268;22875;-50
2023/04/05 12:16:06;;;;;;;;;;;;;;;10.08;65.75;100477.13;110552;1268;22415;-50
2023/04/05 12:18:35;;;;;;;;;;;;;;;10.07;65.63;100481.82;110495;1271;23362;-50
2023/04/05 12:21:09;;;;;;;;;;;;;;;10.06;65.72;100472.83;110513;1276;22437;-49
2023/04/05 12:23:37;;;;;;;;;;;;;;;10.08;65.82;100474.17;110429;1269;23196;-50
2023/04/05 12:26:06;;;;;;;;;;;;;;;10.10;65.76;100469.98;110489;1274;22640;-50
2023/04/05 12:28:53;;;;;;;;;;;;;;;10.09;65.60;100464.45;110205;1276;22458;-50
2023/04/05 12:31:53;;;;;;;;;;;;;;;10.05;65.42;100461.25;110540;1268;23228;-50
2023/04/05 12:34:22;;;;;;;;;;;;;;;9.98;65.70;100460.55;110009;1275;22451;-50
2023/04/05 12:36:52;;;;;;;;;;;;;;;9.96;66.01;100466.50;109991;1274;22453;-50
2023/04/05 12:39:21;;;;;;;;;;;;;;;9.95;66.09;100459.41;109894;1282;22453;-50
2023/04/05 12:41:55;;;;;;;;;;;;;;;9.91;66.16;100461.94;109987;1275;23261;-50
2023/04/05 12:44:27;;;;;;;;;;;;;;;9.85;66.18;100461.20;110002;1276;22566;-50
2023/04/05 12:47:09;;;;;;;;;;;;;;;9.79;66.08;100457.00;109945;1275;22446;-50
2023/04/05 12:49:38;;;;;;;;;;;;;;;9.74;66.04;100456.43;109981;1282;22571;-50